Spencer, Virginia
Current Conditions -  °F | °C
As of 4:15 AM on Wednesday 28 Jan 2015 (Local Time) from KMTV Reporting Station
Clear Clear  
Wind Chill: 17°   Ceiling: Unl
Heat Index: 26°   Visibility: 10mi
Dew Point: 15°   Wind: 10mph
Humidity: 62%   Direction: 340°NNW
Pressure: 30.11"   Gusts: 20mph
Location:  36.62°N, 80.01°W
Report Text: KMTV 280915Z AUTO 34009G17KT 10SM CLR M03/M09 A3011 RMK AO2 T10311095
Loading
Personal Weather Stations






























Interactive Weather Map New forecast layout! Learn more

10-Day Weather Forecast

Advertisements
Track Severe Weather on mobile